Yuzhno-Sakhalinsk Airport
UHSS : now visible

Airfield :











YOU CAN JOIN US ON...

 
LOGIN :

Register | Disclaimer

   EN    FR    IT 

 









Legend :    VFR   Marginal VFR   IFR   Intensive IFR   Very Intensive IFR
Visi :
Ceiling :
>= 8 km
>= 3000ft
5 to 8 km
1000 to 3000 ft
1500m to 5 km
500 to 1000 ft
800 to 1500m
200 to 500 ft
< 800m
< 200 ft
Symbols :   Thunderstorms  Fog  Heavy snow  Heavy precipitations  Wind > 20 kt







- Airport Elevation : 59 ft
- IATA code : UUS


UHSS - Yuzhno-Sakhalinsk

CURRENT METAR :
  • 251130Z 35003MPS 9999 -SHRA SCT033CB 12/11 Q1011 R01/CLRD70 NOSIG RMK MT OBSC QFE757/1010

EXPIRED METARs :
  • 251100Z 35004MPS 9999 -SHRA SCT033CB 12/11 Q1011 R01/CLRD70 NOSIG RMK MT OBSC QFE757/1010
  • 251030Z 35004MPS 9999 -SHRA SCT033CB 13/11 Q1011 R01/CLRD70 NOSIG RMK MT OBSC QFE757/1010
  • 251000Z 35003MPS 9999 FEW033CB 13/11 Q1011 R01/CLRD70 NOSIG RMK MT OBSC QFE757/1009
  • 250930Z 36004MPS 9999 FEW033CB 13/11 Q1011 R01/70D NOSIG RMK MT OBSC QFE757/1009
  • 250900Z 36004MPS 9999 FEW033CB 13/11 Q1010 R01/CLRD70 NOSIG RMK MT OBSC QFE756/1009

TAF TAF UHSS
Valid from the 25 at 12:00 until the 26 at 18:00 UTC


251050Z 2512/2618 36004MPS 9999 SCT007 BKN020CB
TEMPO 2512/2523 2100 -SHRA BR BKN004 BKN017CB
BECMG 2600/2603 27003MPS BKN030CB
No reported NOTAMs for that airfield.



MET'MAP, your aeronautical weather chart ! - Copyright ORBIFLY December 2007 - Disclaimer

ORBIFLY MET'MAP TEAM :

Programming & Development : Alexandra Zaïnal
Concept & Development : Baudouin d'Aumeries
Co-Development & Prog : Marc-Olivier Méhu
Technical & hardware support : Manuel Goepfert

Contact : metmap@orbifly.com




SOURCES & CREDITS :

   NOAA       Earth
Advisory